Weather at Stockholm-Bromma Airport

Public forecast

Using degrees Celsius for public forecast. Weather courtesy of forecast.io.

Current aviation weather report (METAR) for Stockholm-Bromma Airport

Retrieved 2021/01/26 23:20 UTC (48 seconds ago):

ESSB 262320Z AUTO 31008KT 9999 OVC013/// M03/M04 Q1005

Aviation forecast (TAF) for Stockholm-Bromma Airport

Forecast is more than 12 hours old.

Retrieved 2017/03/27 06:35 UTC (4 years ago):

TAF ESSB 270530Z 2706/2724 27008KT CAVOK BECMG 2710/2713 29015G25KT